Delavan, Kansas
Current Conditions -  °F | °C
As of 2:58 AM on Saturday 25 Oct 2014 (Local Time) from KFRI Reporting Station
Clear Clear  
Wind Chill: 59°   Ceiling: Unl
Heat Index: 59°   Visibility: 10mi
Dew Point: 59°   Wind: 1mph
Humidity: 100%   Direction: 280°W
Pressure: 30.02"   Gusts: NA
Location:  38.7322°N, 97.0904°W
Report Text: KFRI 250758Z AUTO 28001KT 10SM CLR 15/15 A3002 RMK AO2 SLP158 T01480148
Loading
Personal Weather Stations






























Interactive Weather Map
Tropical Storm Tracking
New forecast layout! Learn more

10-Day Weather Forecast

Advertisements
Track Severe Weather on mobile